createdAt,value
2017-08-11T00:01:03.026Z,15.70
2017-08-11T00:03:30.485Z,15.70
2017-08-11T00:05:57.952Z,15.60
2017-08-11T00:08:25.480Z,15.60
2017-08-11T00:10:53.677Z,15.70
2017-08-11T00:13:21.188Z,15.70
2017-08-11T00:15:48.721Z,15.70
2017-08-11T00:18:16.204Z,15.70
2017-08-11T00:20:44.449Z,15.60
2017-08-11T00:23:11.899Z,15.60
2017-08-11T00:25:39.349Z,15.60
2017-08-11T00:28:06.820Z,15.60
2017-08-11T00:30:34.262Z,15.60
2017-08-11T00:33:01.751Z,15.60
2017-08-11T00:35:29.201Z,15.60
2017-08-11T00:37:56.660Z,15.60
2017-08-11T00:40:24.143Z,15.60
2017-08-11T00:42:52.365Z,15.60
2017-08-11T00:45:19.806Z,15.60
2017-08-11T00:47:47.288Z,15.60
2017-08-11T00:50:14.734Z,15.60
2017-08-11T00:52:42.188Z,15.50
2017-08-11T00:55:09.665Z,15.50
2017-08-11T00:57:37.117Z,15.50
2017-08-11T01:00:04.581Z,15.50
2017-08-11T01:02:32.021Z,15.60
2017-08-11T01:04:59.490Z,15.60
2017-08-11T01:07:26.952Z,15.60
2017-08-11T01:09:54.395Z,15.60
2017-08-11T01:12:21.875Z,15.60
2017-08-11T01:14:50.093Z,15.70
2017-08-11T01:17:17.524Z,15.70
2017-08-11T01:19:44.989Z,15.70
2017-08-11T01:22:12.428Z,15.70
2017-08-11T01:24:40.782Z,15.70
2017-08-11T01:27:08.257Z,15.60
2017-08-11T01:29:36.468Z,15.70
2017-08-11T01:32:03.948Z,15.70
2017-08-11T01:34:31.375Z,15.70
2017-08-11T01:36:58.821Z,15.70
2017-08-11T01:39:26.284Z,15.70
2017-08-11T01:41:53.728Z,15.70
2017-08-11T01:44:21.203Z,15.70
2017-08-11T01:46:48.686Z,15.70
2017-08-11T01:49:16.116Z,15.70
2017-08-11T01:51:43.589Z,15.80
2017-08-11T01:54:11.158Z,15.80
2017-08-11T01:56:38.627Z,15.80
2017-08-11T01:59:06.108Z,15.80
2017-08-11T02:01:34.351Z,15.80
2017-08-11T02:04:01.793Z,15.70
2017-08-11T02:06:29.264Z,15.80
2017-08-11T02:08:56.720Z,15.70
2017-08-11T02:11:24.192Z,15.70
2017-08-11T02:13:51.634Z,15.70
2017-08-11T02:16:19.075Z,15.70
2017-08-11T02:18:46.545Z,15.70
2017-08-11T02:21:13.998Z,15.80
2017-08-11T02:23:41.475Z,15.80
2017-08-11T02:26:08.913Z,15.80
2017-08-11T02:28:36.360Z,15.80
2017-08-11T02:31:03.832Z,15.80
2017-08-11T02:33:31.299Z,15.80
2017-08-11T02:35:58.805Z,15.70
2017-08-11T02:38:26.243Z,15.70
2017-08-11T02:40:53.743Z,15.70
2017-08-11T02:43:21.230Z,15.70
2017-08-11T02:45:48.675Z,15.60
2017-08-11T02:48:16.136Z,15.60
2017-08-11T02:50:43.615Z,15.60
2017-08-11T02:53:11.129Z,15.60
2017-08-11T02:55:38.632Z,15.60
2017-08-11T02:58:06.081Z,15.60
2017-08-11T03:00:34.296Z,15.60
2017-08-11T03:03:01.758Z,15.60
2017-08-11T03:05:29.221Z,15.60
2017-08-11T03:07:56.694Z,15.50
2017-08-11T03:10:24.135Z,15.50
2017-08-11T03:12:51.611Z,15.60
2017-08-11T03:15:19.084Z,15.60
2017-08-11T03:17:47.299Z,15.60
2017-08-11T03:20:14.780Z,15.60
2017-08-11T03:22:42.268Z,15.60
2017-08-11T03:25:10.517Z,15.60
2017-08-11T03:27:37.972Z,15.50
2017-08-11T03:30:05.428Z,15.50
2017-08-11T03:32:32.888Z,15.50
2017-08-11T03:35:00.324Z,15.60
2017-08-11T03:37:27.832Z,15.50
2017-08-11T03:39:55.272Z,15.50
2017-08-11T03:42:22.754Z,15.50
2017-08-11T03:44:50.969Z,15.60
2017-08-11T03:47:18.452Z,15.50
2017-08-11T03:49:45.909Z,15.50
2017-08-11T03:52:13.357Z,15.50
2017-08-11T03:54:40.834Z,15.60
2017-08-11T03:57:09.060Z,15.50
2017-08-11T03:59:36.523Z,15.50
2017-08-11T04:02:03.998Z,15.60
2017-08-11T04:04:31.446Z,15.50
2017-08-11T04:06:58.910Z,15.50
2017-08-11T04:09:26.348Z,15.50
2017-08-11T04:11:53.827Z,15.50
2017-08-11T04:14:21.276Z,15.40
2017-08-11T04:16:48.838Z,15.40
2017-08-11T04:19:16.305Z,15.40
2017-08-11T04:21:43.751Z,15.30
2017-08-11T04:24:11.192Z,15.30
2017-08-11T04:26:38.674Z,15.20
2017-08-11T04:29:06.120Z,15.20
2017-08-11T04:31:33.581Z,15.20
2017-08-11T04:34:01.063Z,15.20
2017-08-11T04:36:29.309Z,15.20
2017-08-11T04:38:56.855Z,15.20
2017-08-11T04:41:24.332Z,15.20
2017-08-11T04:43:51.779Z,15.30
2017-08-11T04:46:19.259Z,15.30
2017-08-11T04:48:47.473Z,15.20
2017-08-11T04:51:14.927Z,15.20
2017-08-11T04:53:42.398Z,15.20
2017-08-11T04:56:09.839Z,15.30
2017-08-11T04:58:37.331Z,15.30
2017-08-11T05:01:04.825Z,15.30
2017-08-11T05:03:33.062Z,15.30
2017-08-11T05:06:00.539Z,15.30
2017-08-11T05:08:28.078Z,15.30
2017-08-11T05:10:55.557Z,15.30
2017-08-11T05:13:23.764Z,15.40
2017-08-11T05:15:51.209Z,15.40
2017-08-11T05:18:18.672Z,15.40
2017-08-11T05:20:46.125Z,15.50
2017-08-11T05:23:13.636Z,15.50
2017-08-11T05:25:41.070Z,15.60
2017-08-11T05:28:08.507Z,15.60
2017-08-11T05:30:36.064Z,15.70
2017-08-11T05:33:03.743Z,15.70
2017-08-11T05:35:31.219Z,15.80
2017-08-11T05:37:58.678Z,15.80
2017-08-11T05:40:26.128Z,15.80
2017-08-11T05:42:53.693Z,15.90
2017-08-11T05:45:21.140Z,15.90
2017-08-11T05:47:48.579Z,15.90
2017-08-11T05:50:16.052Z,15.90
2017-08-11T05:52:43.487Z,15.90
2017-08-11T05:55:11.061Z,16.00
2017-08-11T05:57:38.507Z,15.90
2017-08-11T06:00:05.965Z,15.90
2017-08-11T06:02:33.491Z,16.00
2017-08-11T06:05:00.923Z,16.00
2017-08-11T06:07:29.134Z,16.10
2017-08-11T06:09:56.612Z,16.00
2017-08-11T06:12:24.069Z,16.10
2017-08-11T06:14:51.520Z,16.10
2017-08-11T06:17:18.981Z,16.10
2017-08-11T06:19:46.434Z,16.10
2017-08-11T06:22:13.904Z,16.10
2017-08-11T06:24:41.372Z,16.10
2017-08-11T06:27:08.839Z,16.20
2017-08-11T06:29:37.052Z,16.20
2017-08-11T06:32:04.523Z,16.20
2017-08-11T06:34:31.998Z,16.30
2017-08-11T06:36:59.454Z,16.30
2017-08-11T06:39:27.000Z,16.30
2017-08-11T06:41:54.460Z,16.40
2017-08-11T06:44:21.905Z,16.40
2017-08-11T06:46:49.386Z,16.50
2017-08-11T06:49:16.824Z,16.40
2017-08-11T06:51:44.298Z,16.40
2017-08-11T06:54:11.779Z,16.50
2017-08-11T06:56:40.436Z,16.60
2017-08-11T06:59:07.927Z,16.60
2017-08-11T07:01:36.164Z,16.70
2017-08-11T07:04:03.600Z,16.70
2017-08-11T07:06:31.069Z,16.70
2017-08-11T07:08:58.558Z,16.80
2017-08-11T07:11:25.988Z,16.80
2017-08-11T07:13:53.449Z,16.80
2017-08-11T07:16:20.907Z,16.80
2017-08-11T07:18:48.573Z,16.80
2017-08-11T07:21:16.040Z,16.80
2017-08-11T07:23:43.579Z,16.90
2017-08-11T07:26:11.078Z,16.90
2017-08-11T07:28:38.589Z,17.00
2017-08-11T07:31:06.036Z,17.00
2017-08-11T07:33:33.545Z,17.00
2017-08-11T07:36:01.756Z,17.00
2017-08-11T07:38:29.212Z,17.00
2017-08-11T07:40:56.684Z,17.00
2017-08-11T07:43:24.128Z,17.10
2017-08-11T07:45:51.600Z,17.00
2017-08-11T07:48:19.051Z,17.10
2017-08-11T07:50:46.517Z,17.10
2017-08-11T07:53:14.075Z,17.10
2017-08-11T07:55:41.548Z,17.10
2017-08-11T07:58:09.013Z,17.20
2017-08-11T08:00:36.504Z,17.20
2017-08-11T08:03:04.707Z,17.30
2017-08-11T08:05:32.188Z,17.30
2017-08-11T08:07:59.663Z,17.40
2017-08-11T08:10:27.904Z,17.50
2017-08-11T08:12:55.345Z,17.40
2017-08-11T08:15:22.798Z,17.50
2017-08-11T08:17:50.283Z,17.50
2017-08-11T08:20:17.832Z,17.50
2017-08-11T08:22:45.285Z,17.50
2017-08-11T08:25:12.835Z,17.50
2017-08-11T08:27:40.287Z,17.50
2017-08-11T08:30:07.755Z,17.50
2017-08-11T08:32:35.216Z,17.50
2017-08-11T08:35:02.679Z,17.50
2017-08-11T08:37:30.155Z,17.50
2017-08-11T08:39:58.402Z,17.50
2017-08-11T08:42:25.888Z,17.50
2017-08-11T08:44:54.136Z,17.70
2017-08-11T08:47:21.604Z,17.70
2017-08-11T08:49:49.056Z,17.70
2017-08-11T08:52:16.613Z,17.70
2017-08-11T08:54:44.085Z,17.70
2017-08-11T08:57:12.295Z,17.70
2017-08-11T08:59:39.771Z,17.70
2017-08-11T09:02:07.221Z,17.70
2017-08-11T09:04:34.708Z,17.70
2017-08-11T09:07:02.180Z,17.80
2017-08-11T09:09:30.387Z,17.90
2017-08-11T09:11:57.828Z,17.90
2017-08-11T09:14:25.288Z,17.90
2017-08-11T09:16:52.776Z,17.90
2017-08-11T09:19:20.252Z,17.80
2017-08-11T09:21:47.705Z,17.80
2017-08-11T09:24:27.161Z,17.70
2017-08-11T09:27:17.357Z,17.60
2017-08-11T09:29:56.523Z,17.50
2017-08-11T09:32:35.874Z,17.40
2017-08-11T09:35:15.393Z,17.30
2017-08-11T09:37:42.850Z,17.30
2017-08-11T09:40:10.287Z,17.40
2017-08-11T09:42:38.524Z,17.50
2017-08-11T09:45:05.990Z,17.50
2017-08-11T09:47:33.550Z,17.60
2017-08-11T09:50:01.012Z,17.70
2017-08-11T09:52:28.495Z,17.80
2017-08-11T09:54:55.948Z,17.90
2017-08-11T09:57:24.208Z,18.00
2017-08-11T09:59:51.657Z,18.00
2017-08-11T10:02:19.100Z,18.10
2017-08-11T10:04:46.662Z,18.10
2017-08-11T10:07:14.220Z,18.20
2017-08-11T10:09:41.664Z,18.20
2017-08-11T10:12:09.150Z,18.20
2017-08-11T10:14:37.369Z,18.10
2017-08-11T10:17:04.811Z,18.10
2017-08-11T10:19:32.296Z,18.10
2017-08-11T10:21:59.868Z,18.00
2017-08-11T10:24:27.340Z,18.00
2017-08-11T10:26:54.848Z,18.00
2017-08-11T10:29:22.320Z,18.00
2017-08-11T10:31:49.776Z,17.90
2017-08-11T10:34:17.260Z,17.90
2017-08-11T10:36:44.714Z,17.90
2017-08-11T10:39:12.215Z,17.80
2017-08-11T10:41:39.657Z,17.80
2017-08-11T10:44:07.876Z,17.80
2017-08-11T10:46:35.350Z,17.80
2017-08-11T10:49:02.824Z,17.80
2017-08-11T10:51:30.412Z,17.80
2017-08-11T10:53:57.882Z,17.80
2017-08-11T10:56:25.418Z,17.80
2017-08-11T10:58:53.654Z,17.70
2017-08-11T11:01:21.130Z,17.70
2017-08-11T11:03:48.573Z,17.80
2017-08-11T11:06:16.029Z,17.80
2017-08-11T11:08:43.616Z,17.70
2017-08-11T11:11:11.871Z,17.80
2017-08-11T11:13:39.343Z,17.80
2017-08-11T11:16:07.558Z,17.80
2017-08-11T11:18:35.021Z,17.70
2017-08-11T11:21:02.490Z,17.70
2017-08-11T11:23:29.985Z,17.80
2017-08-11T11:25:58.250Z,17.80
2017-08-11T11:28:25.699Z,17.70
2017-08-11T11:30:53.188Z,17.70
2017-08-11T11:33:21.550Z,17.70
2017-08-11T11:35:49.044Z,17.70
2017-08-11T11:38:16.506Z,17.70
2017-08-11T11:40:43.990Z,17.70
2017-08-11T11:43:11.481Z,17.70
2017-08-11T11:45:39.708Z,17.70
2017-08-11T11:48:07.189Z,17.70
2017-08-11T11:50:34.748Z,17.80
2017-08-11T11:53:02.308Z,17.80
2017-08-11T11:55:29.861Z,17.80
2017-08-11T11:57:57.318Z,17.70
2017-08-11T12:00:24.796Z,17.70
2017-08-11T12:02:53.091Z,17.70
2017-08-11T12:05:21.317Z,17.70
2017-08-11T12:07:48.790Z,17.70
2017-08-11T12:10:16.246Z,17.60
2017-08-11T12:12:43.740Z,17.60
2017-08-11T12:15:11.200Z,17.50
2017-08-11T12:17:38.679Z,17.50
2017-08-11T12:20:06.168Z,17.50
2017-08-11T12:22:33.623Z,17.50
2017-08-11T12:25:01.132Z,17.50
2017-08-11T12:27:28.576Z,17.50
2017-08-11T12:29:56.103Z,17.50
2017-08-11T12:32:23.676Z,17.60
2017-08-11T12:34:51.893Z,17.60
2017-08-11T12:37:19.401Z,17.50
2017-08-11T12:39:47.619Z,17.50
2017-08-11T12:42:15.100Z,17.50
2017-08-11T12:44:42.567Z,17.50
2017-08-11T12:47:10.024Z,17.50
2017-08-11T12:49:38.540Z,17.40
2017-08-11T12:52:06.778Z,17.40
2017-08-11T12:54:34.276Z,17.40
2017-08-11T12:57:01.740Z,17.40
2017-08-11T12:59:29.197Z,17.50
2017-08-11T13:01:56.676Z,17.40
2017-08-11T13:04:24.110Z,17.50
2017-08-11T13:06:51.601Z,17.40
2017-08-11T13:09:19.063Z,17.40
2017-08-11T13:11:46.532Z,17.40
2017-08-11T13:14:14.117Z,17.40
2017-08-11T13:16:42.333Z,17.40
2017-08-11T13:19:09.788Z,17.40
2017-08-11T13:21:37.265Z,17.40
2017-08-11T13:24:04.713Z,17.40
2017-08-11T13:26:32.188Z,17.40
2017-08-11T13:28:59.755Z,17.40
2017-08-11T13:31:27.231Z,17.40
2017-08-11T13:33:55.462Z,17.40
2017-08-11T13:36:22.912Z,17.40
2017-08-11T13:38:50.488Z,17.30
2017-08-11T13:41:17.944Z,17.30
2017-08-11T13:46:20.126Z,17.20
2017-08-11T13:48:47.622Z,17.20
2017-08-11T13:51:15.858Z,17.20
2017-08-11T13:53:43.307Z,17.20
2017-08-11T13:56:10.794Z,17.20
2017-08-11T13:58:39.034Z,17.20
2017-08-11T14:01:06.500Z,17.20
2017-08-11T14:03:33.994Z,17.20
2017-08-11T14:06:02.240Z,17.20
2017-08-11T14:08:29.719Z,17.10
2017-08-11T14:10:57.951Z,17.10
2017-08-11T14:13:25.441Z,17.10
2017-08-11T14:15:52.948Z,17.10
2017-08-11T14:18:20.403Z,17.10
2017-08-11T14:20:47.915Z,17.10
2017-08-11T14:23:32.793Z,17.00
2017-08-11T14:26:00.275Z,17.00
2017-08-11T14:28:27.768Z,17.00
2017-08-11T14:30:55.221Z,17.00
2017-08-11T14:33:22.711Z,17.00
2017-08-11T14:35:50.971Z,17.00
2017-08-11T14:38:18.470Z,17.00
2017-08-11T14:40:45.928Z,17.00
2017-08-11T14:43:13.410Z,17.00
2017-08-11T14:45:40.996Z,17.00
2017-08-11T14:48:08.458Z,17.00
2017-08-11T14:50:35.923Z,17.00
2017-08-11T14:53:04.167Z,16.90
2017-08-11T14:55:31.646Z,16.90
2017-08-11T14:57:59.093Z,16.90
2017-08-11T15:00:26.540Z,16.80
2017-08-11T15:02:54.022Z,16.90
2017-08-11T15:05:22.251Z,16.90
2017-08-11T15:07:49.753Z,16.90
2017-08-11T15:10:18.010Z,16.80
2017-08-11T15:12:45.484Z,16.80
2017-08-11T15:15:13.756Z,16.90
2017-08-11T15:17:42.012Z,16.90
2017-08-11T15:20:09.590Z,16.90
2017-08-11T15:22:37.059Z,16.90
2017-08-11T15:25:04.517Z,16.90
2017-08-11T15:27:32.744Z,16.90
2017-08-11T15:30:00.228Z,16.90
2017-08-11T15:32:28.464Z,16.90
2017-08-11T15:34:55.941Z,16.90
2017-08-11T15:37:23.434Z,16.90
2017-08-11T15:39:51.677Z,16.90
2017-08-11T15:42:19.173Z,16.90
2017-08-11T15:44:47.423Z,16.80
2017-08-11T15:47:14.976Z,16.70
2017-08-11T15:49:42.471Z,16.80
2017-08-11T15:52:09.928Z,16.80
2017-08-11T15:54:37.409Z,16.80
2017-08-11T15:57:04.885Z,16.80
2017-08-11T15:59:32.417Z,16.70
2017-08-11T16:01:59.893Z,16.60
2017-08-11T16:04:27.353Z,16.60
2017-08-11T16:06:54.808Z,16.50
2017-08-11T16:09:22.283Z,16.50
2017-08-11T16:11:49.737Z,16.50
2017-08-11T16:14:17.252Z,16.40
2017-08-11T16:16:44.691Z,16.40
2017-08-11T16:19:12.174Z,16.50
2017-08-11T16:21:39.655Z,16.50
2017-08-11T16:24:07.120Z,16.50
2017-08-11T16:26:34.601Z,16.50
2017-08-11T16:29:02.919Z,16.60
2017-08-11T16:31:30.378Z,16.60
2017-08-11T16:33:57.862Z,16.60
2017-08-11T16:36:25.420Z,16.60
2017-08-11T16:38:52.942Z,16.60
2017-08-11T16:41:20.416Z,16.70
2017-08-11T16:43:47.875Z,16.70
2017-08-11T16:46:15.368Z,16.70
2017-08-11T16:48:43.640Z,16.70
2017-08-11T16:51:11.906Z,16.70
2017-08-11T16:53:39.384Z,16.70
2017-08-11T16:56:07.608Z,16.80
2017-08-11T16:58:35.102Z,16.70
2017-08-11T17:01:02.571Z,16.80
2017-08-11T17:03:30.060Z,16.80
2017-08-11T17:05:57.619Z,16.70
2017-08-11T17:08:25.093Z,16.70
2017-08-11T17:10:52.598Z,16.70
2017-08-11T17:13:20.841Z,16.70
2017-08-11T17:15:48.317Z,16.70
2017-08-11T17:18:15.782Z,16.70
2017-08-11T17:20:44.053Z,16.70
2017-08-11T17:23:12.274Z,16.70
2017-08-11T17:25:39.733Z,16.60
2017-08-11T17:28:07.221Z,16.60
2017-08-11T17:30:34.684Z,16.60
2017-08-11T17:33:02.133Z,16.70
2017-08-11T17:35:29.599Z,16.60
2017-08-11T17:37:57.073Z,16.60
2017-08-11T17:40:25.320Z,16.50
2017-08-11T17:42:52.788Z,16.50
2017-08-11T17:45:21.043Z,16.50
2017-08-11T17:47:48.531Z,16.50
2017-08-11T17:50:16.740Z,16.50
2017-08-11T17:52:44.226Z,16.50
2017-08-11T17:55:11.716Z,16.50
2017-08-11T17:57:39.238Z,16.40
2017-08-11T18:00:06.692Z,16.40
2017-08-11T18:02:34.188Z,16.40
2017-08-11T18:05:02.467Z,16.40
2017-08-11T18:07:30.705Z,16.40
2017-08-11T18:09:58.248Z,16.40
2017-08-11T18:12:25.715Z,16.40
2017-08-11T18:14:53.183Z,16.40
2017-08-11T18:17:20.664Z,16.40
2017-08-11T18:19:48.887Z,16.40
2017-08-11T18:22:16.398Z,16.40
2017-08-11T18:24:44.654Z,16.50
2017-08-11T18:27:12.136Z,16.40
2017-08-11T18:29:39.618Z,16.40
2017-08-11T18:32:07.109Z,16.50
2017-08-11T18:34:34.612Z,16.50
2017-08-11T18:37:02.134Z,16.50
2017-08-11T18:39:29.633Z,16.50
2017-08-11T18:41:57.133Z,16.50
2017-08-11T18:44:24.587Z,16.40
2017-08-11T18:46:52.040Z,16.40
2017-08-11T18:49:19.539Z,16.40
2017-08-11T18:51:47.785Z,16.40
2017-08-11T18:54:15.272Z,16.40
2017-08-11T18:56:43.592Z,16.40
2017-08-11T18:59:11.141Z,16.40
2017-08-11T19:01:38.593Z,16.40
2017-08-11T19:04:07.003Z,16.40
2017-08-11T19:06:34.493Z,16.40
2017-08-11T19:09:02.920Z,16.40
2017-08-11T19:11:30.573Z,16.40
2017-08-11T19:13:58.185Z,16.40
2017-08-11T19:16:26.551Z,16.40
2017-08-11T19:18:54.068Z,16.40
2017-08-11T19:21:21.938Z,16.40
2017-08-11T19:23:49.453Z,16.40
2017-08-11T19:26:18.072Z,16.40
2017-08-11T19:28:45.615Z,16.40
2017-08-11T19:31:13.125Z,16.40
2017-08-11T19:33:40.666Z,16.40
2017-08-11T19:36:08.202Z,16.40
2017-08-11T19:38:35.706Z,16.40
2017-08-11T19:41:03.628Z,16.30
2017-08-11T19:43:31.274Z,16.40
2017-08-11T19:45:58.796Z,16.40
2017-08-11T19:48:26.406Z,16.40
2017-08-11T19:50:54.380Z,16.40
2017-08-11T19:53:22.243Z,16.40
2017-08-11T19:55:50.208Z,16.40
2017-08-11T19:58:18.175Z,16.40
2017-08-11T20:00:46.042Z,16.30
2017-08-11T20:03:13.915Z,16.30
2017-08-11T20:05:41.494Z,16.30
2017-08-11T20:08:09.331Z,16.30
2017-08-11T20:10:36.933Z,16.30
2017-08-11T20:13:04.547Z,16.30
2017-08-11T20:15:32.314Z,16.30
2017-08-11T20:17:59.827Z,16.40
2017-08-11T20:20:28.060Z,16.30
2017-08-11T20:22:55.694Z,16.30
2017-08-11T20:25:23.208Z,16.40
2017-08-11T20:27:50.809Z,16.40
2017-08-11T20:30:18.408Z,16.30
2017-08-11T20:32:45.897Z,16.30
2017-08-11T20:35:13.413Z,16.30
2017-08-11T20:37:40.905Z,16.30
2017-08-11T20:40:08.411Z,16.30
2017-08-11T20:42:35.955Z,16.30
2017-08-11T20:45:03.469Z,16.30
2017-08-11T20:47:31.787Z,16.20
2017-08-11T20:49:59.317Z,16.20
2017-08-11T20:52:27.618Z,16.10
2017-08-11T20:54:55.111Z,16.10
2017-08-11T20:57:22.624Z,16.10
2017-08-11T20:59:50.153Z,16.10
2017-08-11T21:02:17.688Z,16.10
2017-08-11T21:04:45.195Z,16.10
2017-08-11T21:07:13.488Z,16.10
2017-08-11T21:09:41.036Z,16.10
2017-08-11T21:12:08.562Z,16.10
2017-08-11T21:14:36.069Z,16.10
2017-08-11T21:17:03.592Z,16.10
2017-08-11T21:19:31.888Z,16.10
2017-08-11T21:21:59.396Z,16.00
2017-08-11T21:24:26.919Z,16.10
2017-08-11T21:26:54.432Z,16.10
2017-08-11T21:29:22.748Z,16.10
2017-08-11T21:31:50.259Z,16.10
2017-08-11T21:34:18.531Z,16.10
2017-08-11T21:36:46.360Z,16.20
2017-08-11T21:39:13.889Z,16.20
2017-08-11T21:41:41.410Z,16.20
2017-08-11T21:44:08.940Z,16.10
2017-08-11T21:46:36.559Z,16.10
2017-08-11T21:49:04.102Z,16.10
2017-08-11T21:51:32.365Z,16.00
2017-08-11T21:53:59.912Z,16.00
2017-08-11T21:56:27.441Z,16.00
2017-08-11T21:58:55.028Z,16.00
2017-08-11T22:01:22.576Z,16.00
2017-08-11T22:03:50.088Z,15.90
2017-08-11T22:06:17.645Z,15.90
2017-08-11T22:08:45.215Z,15.90
2017-08-11T22:11:12.755Z,15.80
2017-08-11T22:13:40.274Z,15.80
2017-08-11T22:16:07.761Z,15.70
2017-08-11T22:18:36.061Z,15.70
2017-08-11T22:21:03.593Z,15.70
2017-08-11T22:23:31.900Z,15.70
2017-08-11T22:25:59.396Z,15.70
2017-08-11T22:28:26.896Z,15.70
2017-08-11T22:30:54.441Z,15.70
2017-08-11T22:33:22.724Z,15.70
2017-08-11T22:35:51.013Z,15.60
2017-08-11T22:38:18.545Z,15.60
2017-08-11T22:40:46.860Z,15.60
2017-08-11T22:43:14.404Z,15.60
2017-08-11T22:45:41.901Z,15.70
2017-08-11T22:48:09.397Z,15.70
2017-08-11T22:50:37.802Z,15.60
2017-08-11T22:53:05.348Z,15.60
2017-08-11T22:55:32.889Z,15.60
2017-08-11T22:58:01.149Z,15.60
2017-08-11T23:00:28.660Z,15.60
2017-08-11T23:02:56.193Z,15.60
2017-08-11T23:05:23.706Z,15.50
2017-08-11T23:07:51.220Z,15.50
2017-08-11T23:10:18.716Z,15.50
2017-08-11T23:12:46.229Z,15.50
2017-08-11T23:15:13.769Z,15.50
2017-08-11T23:17:42.073Z,15.40
2017-08-11T23:20:09.613Z,15.40
2017-08-11T23:22:37.110Z,15.50
2017-08-11T23:25:04.642Z,15.50
2017-08-11T23:27:32.188Z,15.50
2017-08-11T23:29:59.676Z,15.50
2017-08-11T23:32:27.193Z,15.50
2017-08-11T23:34:55.462Z,15.50
2017-08-11T23:37:23.750Z,15.50
2017-08-11T23:39:51.260Z,15.50
2017-08-11T23:42:18.792Z,15.50
2017-08-11T23:44:46.288Z,15.50
2017-08-11T23:47:13.780Z,15.50
2017-08-11T23:49:42.057Z,15.50
2017-08-11T23:52:09.628Z,15.50
2017-08-11T23:54:37.140Z,15.50
2017-08-11T23:57:04.649Z,15.50
2017-08-11T23:59:32.213Z,15.50
